Time;durP1;ratioP1;P1;durP2;ratioP2;P2;SDS_P1;SDS_P2;PMS_P1;PMS_P2;Temp;Humidity;BMP_temperature;BMP_pressure;BME280_temperature;BME280_humidity;BME280_pressure;Samples;Min_cycle;Max_cycle;Signal;HPM_P1;HPM_P2
2023/07/26 00:01:40;;;;;;;2.87;2.57;;;12.30;99.90;;;;;;4830618;29;20437;-92
2023/07/26 00:04:07;;;;;;;4.90;2.30;;;12.30;99.90;;;;;;4829242;29;20264;-92
2023/07/26 00:06:32;;;;;;;3.20;2.00;;;12.20;99.90;;;;;;4846569;29;20185;-91
2023/07/26 00:08:58;;;;;;;2.20;1.93;;;12.20;99.90;;;;;;4830042;29;20418;-92
2023/07/26 00:11:23;;;;;;;3.50;2.10;;;12.30;99.90;;;;;;4829615;29;20185;-92
2023/07/26 00:13:49;;;;;;;9.60;2.50;;;12.30;99.90;;;;;;4845558;29;20654;-92
2023/07/26 00:16:15;;;;;;;3.23;2.20;;;12.30;99.90;;;;;;4831125;29;20192;-92
2023/07/26 00:18:40;;;;;;;6.50;1.80;;;12.30;99.90;;;;;;4830444;29;20185;-92
2023/07/26 00:21:07;;;;;;;4.53;2.00;;;12.40;99.90;;;;;;4814435;29;20215;-91
2023/07/26 00:23:32;;;;;;;3.37;2.00;;;12.40;99.90;;;;;;4846295;29;20255;-92
2023/07/26 00:25:58;;;;;;;3.40;2.30;;;12.40;99.90;;;;;;4846102;29;20979;-92
2023/07/26 00:28:24;;;;;;;3.33;1.63;;;12.40;99.90;;;;;;4816054;29;20191;-92
2023/07/26 00:30:50;;;;;;;3.50;2.30;;;12.40;99.90;;;;;;4846799;29;20271;-92
2023/07/26 00:33:16;;;;;;;2.90;2.20;;;12.50;99.90;;;;;;4829183;29;20192;-92
2023/07/26 00:35:43;;;;;;;3.23;2.93;;;12.50;99.90;;;;;;4845374;29;20510;-92
2023/07/26 00:38:09;;;;;;;2.20;2.00;;;12.50;99.90;;;;;;4828586;29;20437;-92
2023/07/26 00:40:39;;;;;;;2.80;2.60;;;12.50;99.90;;;;;;4829002;29;20445;-92
2023/07/26 00:43:05;;;;;;;3.20;2.80;;;12.50;99.90;;;;;;4845342;29;20978;-92
2023/07/26 00:45:35;;;;;;;4.30;2.97;;;12.60;99.90;;;;;;4830621;29;20429;-92
2023/07/26 00:48:01;;;;;;;4.97;2.60;;;12.60;99.90;;;;;;4829736;29;20426;-92
2023/07/26 00:50:27;;;;;;;4.43;2.70;;;12.60;99.90;;;;;;4847043;29;20422;-92
2023/07/26 00:52:54;;;;;;;4.27;2.90;;;12.60;99.90;;;;;;4845973;29;20422;-92
2023/07/26 00:55:20;;;;;;;4.30;2.37;;;12.70;99.90;;;;;;4829458;29;20422;-92
2023/07/26 00:57:46;;;;;;;4.23;2.43;;;12.70;99.90;;;;;;4829395;29;20438;-92
2023/07/26 01:00:13;;;;;;;2.43;1.90;;;12.70;99.90;;;;;;4829068;29;20247;-92
2023/07/26 01:02:38;;;;;;;3.47;2.43;;;12.70;99.90;;;;;;4845755;29;20466;-92
2023/07/26 01:05:05;;;;;;;3.23;2.07;;;12.70;99.90;;;;;;4844797;29;20971;-92
2023/07/26 01:08:09;;;;;;;2.03;1.83;;;12.70;99.90;;;;;;4832508;29;20185;-91
2023/07/26 01:10:49;;;;;;;2.00;1.80;;;12.70;99.90;;;;;;4840922;29;20441;-92
2023/07/26 01:13:42;;;;;;;3.17;2.37;;;12.70;99.90;;;;;;4844882;29;20436;-92
2023/07/26 01:16:08;;;;;;;5.23;2.50;;;12.80;99.90;;;;;;4845890;29;20426;-92
2023/07/26 01:18:33;;;;;;;2.30;2.10;;;12.80;99.90;;;;;;4845587;29;20410;-92
2023/07/26 01:20:59;;;;;;;5.30;2.53;;;12.80;99.90;;;;;;4829054;29;20814;-92
2023/07/26 01:23:25;;;;;;;4.13;1.93;;;12.80;99.90;;;;;;4845064;29;20213;-92
2023/07/26 01:25:51;;;;;;;3.23;2.23;;;12.80;99.90;;;;;;4845017;29;20267;-92
2023/07/26 01:28:16;;;;;;;3.70;1.90;;;12.70;99.90;;;;;;4828656;29;20516;-92
2023/07/26 01:30:43;;;;;;;2.57;2.03;;;12.80;99.90;;;;;;4844563;29;20233;-91
2023/07/26 01:33:09;;;;;;;4.27;1.97;;;12.70;99.90;;;;;;4828004;29;20227;-91
2023/07/26 01:35:37;;;;;;;4.83;2.40;;;12.70;99.90;;;;;;4812762;29;20558;-91
2023/07/26 01:38:03;;;;;;;1.90;1.80;;;12.70;99.90;;;;;;4844166;29;20855;-92
2023/07/26 01:40:29;;;;;;;4.73;2.37;;;12.70;99.90;;;;;;4827826;29;20931;-91
2023/07/26 01:42:56;;;;;;;2.93;1.80;;;12.70;99.90;;;;;;4844386;29;20572;-92
2023/07/26 01:45:22;;;;;;;5.30;2.27;;;12.70;99.90;;;;;;4845056;29;20509;-92
2023/07/26 01:47:49;;;;;;;3.00;1.97;;;12.70;99.90;;;;;;4829079;29;20460;-91
2023/07/26 01:50:14;;;;;;;10.07;2.47;;;12.70;99.90;;;;;;4844826;29;20606;-92
2023/07/26 01:52:42;;;;;;;2.50;2.30;;;12.70;99.90;;;;;;4828544;29;20513;-91
2023/07/26 01:55:08;;;;;;;10.60;2.60;;;12.70;99.90;;;;;;4844332;29;20187;-92
2023/07/26 01:57:34;;;;;;;5.53;2.30;;;12.70;99.90;;;;;;4844877;29;20426;-91
2023/07/26 02:00:00;;;;;;;4.47;2.10;;;12.70;99.90;;;;;;4844183;29;20419;-92
2023/07/26 02:02:25;;;;;;;3.73;2.23;;;12.70;99.90;;;;;;4812696;29;20217;-92
2023/07/26 02:04:51;;;;;;;5.20;2.93;;;12.70;99.90;;;;;;4844192;29;20525;-91
2023/07/26 02:07:17;;;;;;;6.10;2.43;;;12.70;99.90;;;;;;4827652;29;20193;-93
2023/07/26 02:09:43;;;;;;;2.60;2.40;;;12.70;99.90;;;;;;4812302;29;20608;-92
2023/07/26 02:12:09;;;;;;;4.43;2.63;;;12.70;99.90;;;;;;4843670;29;20233;-92
2023/07/26 02:14:34;;;;;;;2.50;2.30;;;12.70;99.90;;;;;;4827859;29;20445;-92
2023/07/26 02:17:00;;;;;;;3.47;2.40;;;12.70;99.90;;;;;;4844781;29;20184;-92
2023/07/26 02:19:28;;;;;;;2.70;2.10;;;12.70;99.90;;;;;;4844338;29;20261;-92
2023/07/26 02:21:54;;;;;;;2.57;2.10;;;12.60;99.90;;;;;;4827990;29;20199;-92
2023/07/26 02:24:19;;;;;;;3.53;2.00;;;12.60;99.90;;;;;;4843849;29;20512;-92
2023/07/26 02:26:45;;;;;;;3.10;2.20;;;12.70;99.90;;;;;;4827686;29;20181;-93
2023/07/26 02:29:11;;;;;;;2.57;2.37;;;12.70;99.90;;;;;;4812541;29;20185;-92
2023/07/26 02:31:36;;;;;;;3.77;3.07;;;12.70;99.90;;;;;;4827908;29;20285;-92
2023/07/26 02:34:02;;;;;;;4.33;2.90;;;12.70;99.90;;;;;;4843951;29;20189;-92
2023/07/26 02:36:27;;;;;;;4.57;2.80;;;12.70;99.90;;;;;;4827488;29;20633;-93
2023/07/26 02:38:53;;;;;;;3.40;3.10;;;12.70;99.90;;;;;;4843661;29;20189;-92
2023/07/26 02:41:19;;;;;;;3.00;2.80;;;12.70;99.90;;;;;;4827163;29;20197;-93
2023/07/26 02:43:44;;;;;;;5.50;3.03;;;12.70;99.90;;;;;;4827131;29;20697;-93
2023/07/26 02:46:10;;;;;;;3.70;2.80;;;12.70;99.90;;;;;;4812405;29;20193;-92
2023/07/26 02:48:36;;;;;;;3.10;2.90;;;12.70;99.90;;;;;;4828341;29;20646;-93
2023/07/26 02:51:01;;;;;;;7.20;2.90;;;12.70;99.90;;;;;;4827414;29;20185;-92
2023/07/26 02:53:27;;;;;;;3.63;3.03;;;12.70;99.90;;;;;;4827147;29;20430;-93
2023/07/26 02:55:53;;;;;;;3.00;2.70;;;12.70;99.90;;;;;;4827856;29;20193;-93
2023/07/26 02:58:19;;;;;;;5.60;3.27;;;12.70;99.90;;;;;;4827511;29;20196;-93
2023/07/26 03:00:44;;;;;;;4.07;3.67;;;12.70;99.90;;;;;;4828046;29;20555;-93
2023/07/26 03:03:12;;;;;;;2.97;2.70;;;12.70;99.90;;;;;;4812088;29;20311;-93
2023/07/26 03:05:38;;;;;;;3.27;2.97;;;12.60;99.90;;;;;;4827206;29;20313;-92
2023/07/26 03:08:04;;;;;;;4.20;3.80;;;12.60;99.90;;;;;;4826218;29;20525;-92
2023/07/26 03:10:31;;;;;;;7.90;3.20;;;12.60;99.90;;;;;;4843374;29;20196;-93
2023/07/26 03:12:57;;;;;;;5.30;3.37;;;12.60;99.90;;;;;;4826568;29;20219;-92
2023/07/26 03:15:22;;;;;;;4.03;3.13;;;12.60;99.90;;;;;;4848514;29;20410;-92
2023/07/26 03:17:48;;;;;;;4.80;3.57;;;12.60;99.90;;;;;;4844272;29;20181;-92
2023/07/26 03:20:14;;;;;;;6.17;3.90;;;12.60;99.90;;;;;;4844467;29;20203;-93
2023/07/26 03:22:39;;;;;;;6.13;3.90;;;12.60;99.90;;;;;;4826987;29;20286;-92
2023/07/26 03:25:05;;;;;;;4.60;2.97;;;12.60;99.90;;;;;;4811636;29;20221;-92
2023/07/26 03:27:31;;;;;;;3.37;3.07;;;12.60;99.90;;;;;;4827432;29;20276;-92
2023/07/26 03:29:57;;;;;;;3.20;3.00;;;12.60;99.90;;;;;;4843237;29;20449;-92
2023/07/26 03:32:22;;;;;;;4.23;2.87;;;12.70;99.90;;;;;;4826504;29;20237;-92
2023/07/26 03:34:48;;;;;;;3.97;3.50;;;12.70;99.90;;;;;;4826834;29;20579;-92
2023/07/26 03:37:13;;;;;;;4.40;4.00;;;12.70;99.90;;;;;;4842745;29;20213;-92
2023/07/26 03:39:39;;;;;;;3.93;3.53;;;12.70;99.90;;;;;;4827018;29;20185;-92
2023/07/26 03:42:05;;;;;;;3.83;3.53;;;12.70;99.90;;;;;;4826422;29;20571;-92
2023/07/26 03:44:31;;;;;;;5.00;3.93;;;12.70;99.90;;;;;;4843117;29;20268;-93
2023/07/26 03:46:56;;;;;;;4.33;3.93;;;12.80;99.90;;;;;;4827527;29;20506;-92
2023/07/26 03:49:22;;;;;;;4.07;3.67;;;12.70;99.90;;;;;;4845703;29;20185;-92
2023/07/26 03:51:48;;;;;;;6.70;3.40;;;12.70;99.90;;;;;;4830181;29;20199;-92
2023/07/26 03:54:13;;;;;;;4.97;3.93;;;12.80;99.90;;;;;;4846221;29;20189;-91
2023/07/26 03:56:39;;;;;;;6.53;3.80;;;12.70;99.90;;;;;;4846735;29;20557;-92
2023/07/26 03:59:04;;;;;;;7.03;4.13;;;12.80;99.90;;;;;;4847096;29;20593;-93
2023/07/26 04:01:31;;;;;;;5.63;3.87;;;12.80;99.90;;;;;;4846380;29;20200;-92
2023/07/26 04:03:56;;;;;;;5.00;4.10;;;12.80;99.90;;;;;;4829618;29;20481;-92
2023/07/26 04:06:22;;;;;;;5.73;4.20;;;12.90;99.90;;;;;;4829560;29;20201;-92
2023/07/26 04:08:48;;;;;;;4.80;3.30;;;12.90;99.90;;;;;;4814325;29;20211;-92
2023/07/26 04:11:13;;;;;;;3.03;2.77;;;12.90;99.90;;;;;;4828975;29;20702;-93
2023/07/26 04:13:39;;;;;;;4.20;3.33;;;13.00;99.90;;;;;;4846079;29;20224;-93
2023/07/26 04:16:19;;;;;;;6.50;4.20;;;13.00;99.90;;;;;;4846095;29;20185;-92
2023/07/26 04:18:45;;;;;;;4.80;3.60;;;13.00;99.90;;;;;;4846638;29;20666;-92
2023/07/26 04:21:14;;;;;;;5.57;3.30;;;13.00;99.90;;;;;;4829743;29;20422;-92
2023/07/26 04:23:40;;;;;;;8.10;3.63;;;13.10;99.90;;;;;;4846520;29;20476;-91
2023/07/26 04:26:06;;;;;;;4.20;3.80;;;13.10;99.90;;;;;;4830488;29;21044;-90
2023/07/26 04:28:31;;;;;;;3.50;3.00;;;13.10;99.90;;;;;;4829718;29;20513;-91
2023/07/26 04:30:57;;;;;;;3.00;2.70;;;13.10;99.90;;;;;;4846155;29;20240;-93
2023/07/26 04:33:22;;;;;;;4.30;3.20;;;13.10;99.90;;;;;;4846092;29;20235;-93
2023/07/26 04:35:48;;;;;;;4.43;3.07;;;13.10;99.90;;;;;;4830127;29;20627;-93
2023/07/26 04:38:13;;;;;;;3.50;3.20;;;13.20;99.90;;;;;;4829516;29;20189;-93
2023/07/26 04:40:39;;;;;;;4.80;3.53;;;13.20;99.90;;;;;;4846223;29;20225;-93
2023/07/26 04:43:05;;;;;;;4.03;3.70;;;13.30;99.90;;;;;;4845740;29;20552;-93
2023/07/26 04:45:30;;;;;;;5.57;3.50;;;13.30;99.90;;;;;;4829376;29;20216;-93
2023/07/26 04:47:56;;;;;;;10.10;3.57;;;13.30;99.90;;;;;;4831082;29;20280;-93
2023/07/26 04:50:22;;;;;;;8.90;3.97;;;13.30;99.90;;;;;;4846451;29;20425;-93
2023/07/26 04:52:47;;;;;;;7.43;3.80;;;13.40;99.90;;;;;;4846251;29;20552;-93
2023/07/26 04:55:13;;;;;;;4.83;3.73;;;13.50;99.90;;;;;;4829290;29;20275;-93
2023/07/26 04:57:42;;;;;;;5.80;4.30;;;13.40;99.90;;;;;;4845453;29;20181;-93
2023/07/26 05:00:08;;;;;;;4.97;3.70;;;13.60;99.90;;;;;;4845351;29;20185;-93
2023/07/26 05:02:33;;;;;;;4.10;3.10;;;13.60;99.90;;;;;;4845257;29;20560;-93
2023/07/26 05:04:59;;;;;;;5.23;3.53;;;13.60;99.90;;;;;;4829317;29;20465;-93
2023/07/26 05:07:24;;;;;;;4.17;3.20;;;13.60;99.90;;;;;;4828584;29;20181;-93
2023/07/26 05:09:50;;;;;;;4.07;3.63;;;13.50;99.90;;;;;;4828849;29;20185;-93
2023/07/26 05:12:16;;;;;;;4.97;3.43;;;13.50;99.90;;;;;;4828484;29;20228;-92
2023/07/26 05:14:43;;;;;;;3.67;3.37;;;13.60;99.90;;;;;;4813577;29;20185;-93
2023/07/26 05:17:08;;;;;;;7.57;3.47;;;13.60;99.90;;;;;;4845656;29;20642;-93
2023/07/26 05:19:34;;;;;;;5.53;3.50;;;13.60;99.90;;;;;;4829470;29;20426;-93
2023/07/26 05:22:00;;;;;;;4.40;3.67;;;13.70;99.90;;;;;;4829562;29;20566;-93
2023/07/26 05:24:25;;;;;;;4.57;3.70;;;13.70;99.90;;;;;;4845689;29;20204;-93
2023/07/26 05:26:51;;;;;;;6.90;3.57;;;13.70;99.90;;;;;;4829458;29;20188;-93
2023/07/26 05:29:16;;;;;;;3.77;2.80;;;13.80;99.90;;;;;;4813767;29;20188;-93
2023/07/26 05:31:42;;;;;;;5.80;3.30;;;13.70;99.90;;;;;;4829085;29;20237;-92
2023/07/26 05:34:08;;;;;;;6.77;2.77;;;13.80;99.90;;;;;;4845432;29;20189;-93
2023/07/26 05:36:33;;;;;;;5.60;3.23;;;13.80;99.90;;;;;;4828277;29;20192;-93
2023/07/26 05:38:59;;;;;;;5.47;3.50;;;13.80;99.90;;;;;;4828243;29;20192;-92
2023/07/26 05:41:26;;;;;;;6.73;3.20;;;13.80;99.90;;;;;;4844105;29;20626;-92
2023/07/26 05:43:52;;;;;;;4.30;3.70;;;13.80;99.90;;;;;;4844740;29;20268;-93
2023/07/26 05:46:18;;;;;;;6.33;2.90;;;13.90;99.90;;;;;;4827541;29;20438;-90
2023/07/26 05:48:43;;;;;;;6.50;3.43;;;13.90;99.90;;;;;;4813767;29;20436;-90
2023/07/26 05:51:09;;;;;;;3.70;3.40;;;14.00;99.90;;;;;;4831586;29;20237;-93
2023/07/26 05:53:36;;;;;;;3.53;3.27;;;14.10;99.90;;;;;;4828480;29;20189;-91
2023/07/26 05:56:02;;;;;;;6.37;3.13;;;14.10;99.90;;;;;;4828696;29;20188;-90
2023/07/26 05:58:28;;;;;;;5.93;3.20;;;14.10;99.90;;;;;;4827468;29;20401;-93
2023/07/26 06:00:53;;;;;;;8.77;3.33;;;14.20;99.90;;;;;;4843500;29;20429;-93
2023/07/26 06:03:19;;;;;;;6.97;3.37;;;14.20;99.90;;;;;;4843596;29;20212;-93
2023/07/26 06:05:45;;;;;;;4.03;3.30;;;14.30;99.90;;;;;;4827417;29;20291;-93
2023/07/26 06:08:10;;;;;;;3.17;2.90;;;14.30;99.90;;;;;;4827591;29;20196;-94
2023/07/26 06:10:36;;;;;;;3.93;3.00;;;14.50;99.90;;;;;;4826492;29;20189;-93
2023/07/26 06:13:02;;;;;;;3.73;2.83;;;14.50;99.90;;;;;;4843169;29;20271;-93
2023/07/26 06:15:27;;;;;;;5.90;3.40;;;14.70;99.90;;;;;;4826759;29;20189;-91
2023/07/26 06:17:53;;;;;;;3.47;3.17;;;14.90;99.90;;;;;;4827197;29;20230;-90
2023/07/26 06:20:19;;;;;;;4.87;2.67;;;15.10;99.90;;;;;;4843247;29;20725;-90
2023/07/26 06:22:44;;;;;;;3.40;3.00;;;15.30;99.90;;;;;;4843328;29;20224;-93
2023/07/26 06:25:10;;;;;;;4.10;3.30;;;15.20;99.90;;;;;;4843310;29;20619;-93
2023/07/26 06:27:38;;;;;;;5.97;2.50;;;15.30;99.90;;;;;;4826858;29;20281;-93
2023/07/26 06:30:04;;;;;;;7.57;3.50;;;15.40;99.90;;;;;;4843193;29;20192;-93
2023/07/26 06:32:30;;;;;;;7.30;3.03;;;15.40;99.90;;;;;;4826613;29;20482;-93
2023/07/26 06:34:57;;;;;;;4.23;2.87;;;15.50;99.90;;;;;;4843205;29;20498;-94
2023/07/26 06:37:22;;;;;;;3.77;3.40;;;15.40;99.90;;;;;;4843007;29;20184;-93
2023/07/26 06:39:48;;;;;;;3.90;3.40;;;15.40;99.90;;;;;;4827150;29;20429;-93
2023/07/26 06:42:13;;;;;;;4.83;3.30;;;15.50;99.90;;;;;;4827087;29;20200;-94
2023/07/26 06:44:39;;;;;;;6.40;3.37;;;15.60;99.90;;;;;;4812139;29;20201;-94
2023/07/26 06:47:06;;;;;;;4.10;3.17;;;15.70;99.90;;;;;;4827223;29;20193;-94
2023/07/26 06:49:34;;;;;;;6.20;2.97;;;15.80;99.90;;;;;;4827366;29;20915;-94
2023/07/26 06:52:00;;;;;;;9.00;3.20;;;15.80;99.90;;;;;;4827080;29;20425;-94
2023/07/26 06:54:26;;;;;;;4.10;3.50;;;15.60;99.90;;;;;;4827135;29;20433;-95
2023/07/26 06:56:51;;;;;;;4.40;4.00;;;15.70;99.90;;;;;;4826980;29;20213;-93
2023/07/26 06:59:18;;;;;;;9.67;3.70;;;15.70;99.90;;;;;;4826787;29;20203;-93
2023/07/26 07:01:43;;;;;;;6.83;3.53;;;15.80;99.90;;;;;;4827392;29;20192;-93
2023/07/26 07:04:09;;;;;;;7.80;3.70;;;15.70;99.90;;;;;;4826902;29;20982;-94
2023/07/26 07:06:35;;;;;;;9.77;3.90;;;15.80;99.90;;;;;;4826956;29;20185;-94
2023/07/26 07:09:00;;;;;;;5.30;3.63;;;15.80;99.90;;;;;;4827240;29;20235;-94
2023/07/26 07:11:26;;;;;;;8.33;3.60;;;15.80;99.90;;;;;;4826573;29;20242;-94
2023/07/26 07:13:54;;;;;;;5.50;3.63;;;15.90;99.90;;;;;;4811592;29;20557;-94
2023/07/26 07:16:19;;;;;;;7.70;3.77;;;15.90;99.90;;;;;;4826524;29;20185;-95
2023/07/26 07:18:45;;;;;;;6.03;3.60;;;16.00;99.90;;;;;;4826806;29;20527;-93
2023/07/26 07:21:10;;;;;;;9.93;4.33;;;15.90;99.90;;;;;;4827138;29;20196;-94
2023/07/26 07:23:36;;;;;;;6.50;3.97;;;15.90;99.90;;;;;;4829679;29;20204;-94
2023/07/26 07:26:02;;;;;;;7.87;4.03;;;15.80;99.90;;;;;;4846643;29;20188;-93
2023/07/26 07:28:27;;;;;;;12.37;4.33;;;15.90;99.90;;;;;;4830409;29;20181;-93
2023/07/26 07:30:55;;;;;;;7.80;3.63;;;16.10;99.90;;;;;;4830052;29;20311;-94
2023/07/26 07:33:20;;;;;;;10.83;4.60;;;16.10;99.90;;;;;;4846703;29;20213;-94
2023/07/26 07:35:47;;;;;;;8.40;4.20;;;16.30;99.90;;;;;;4800011;29;20506;-93
2023/07/26 07:38:12;;;;;;;11.47;5.30;;;16.30;99.90;;;;;;4830098;29;20192;-93
2023/07/26 07:40:38;;;;;;;10.33;4.80;;;16.50;99.90;;;;;;4829700;29;20516;-93
2023/07/26 07:43:04;;;;;;;11.50;5.50;;;16.50;99.90;;;;;;4846194;29;20223;-93
2023/07/26 07:45:30;;;;;;;5.27;4.57;;;16.60;99.90;;;;;;4814782;29;20547;-93
2023/07/26 07:47:55;;;;;;;8.87;5.20;;;16.60;99.90;;;;;;4829502;29;20220;-94
2023/07/26 07:50:21;;;;;;;8.93;5.47;;;16.70;99.90;;;;;;4846045;29;20449;-94
2023/07/26 07:52:47;;;;;;;5.37;4.50;;;16.80;99.90;;;;;;4846460;29;20437;-93
2023/07/26 07:55:12;;;;;;;10.50;3.90;;;16.80;99.90;;;;;;4846281;29;20220;-90
2023/07/26 07:57:38;;;;;;;5.40;4.60;;;16.90;99.90;;;;;;4845623;29;20256;-90
2023/07/26 08:00:05;;;;;;;6.73;4.00;;;17.10;99.90;;;;;;4846157;29;20188;-91
2023/07/26 08:02:30;;;;;;;6.27;5.00;;;17.20;99.90;;;;;;4829015;29;20477;-90
2023/07/26 08:04:56;;;;;;;7.80;4.60;;;17.30;99.90;;;;;;4814528;29;20951;-88
2023/07/26 08:07:22;;;;;;;8.80;5.20;;;17.30;99.90;;;;;;4845854;29;20214;-93
2023/07/26 08:09:47;;;;;;;6.87;4.40;;;17.30;99.90;;;;;;4829699;29;20199;-92
2023/07/26 08:12:13;;;;;;;10.60;4.90;;;17.40;99.90;;;;;;4845804;29;20546;-91
2023/07/26 08:14:38;;;;;;;6.37;3.90;;;17.50;99.90;;;;;;4829365;29;20189;-91
2023/07/26 08:17:10;;;;;;;8.07;4.00;;;17.70;99.90;;;;;;4829128;29;20189;-93
2023/07/26 08:19:35;;;;;;;6.87;3.60;;;18.10;99.90;;;;;;4815441;29;20268;-92
2023/07/26 08:22:01;;;;;;;5.27;4.10;;;18.20;99.90;;;;;;4845656;29;20426;-91
2023/07/26 08:24:26;;;;;;;4.70;3.50;;;18.30;99.90;;;;;;4845359;29;20224;-93
2023/07/26 08:26:52;;;;;;;9.40;4.47;;;18.40;99.90;;;;;;4829414;29;20193;-93
2023/07/26 08:29:18;;;;;;;7.40;3.90;;;18.40;99.90;;;;;;4829122;29;20659;-92
2023/07/26 08:31:43;;;;;;;8.20;4.13;;;18.50;99.90;;;;;;4828531;29;20335;-91
2023/07/26 08:34:09;;;;;;;4.63;3.50;;;18.70;99.90;;;;;;4844812;29;20227;-89
2023/07/26 08:36:35;;;;;;;4.20;3.80;;;18.70;99.90;;;;;;4828652;29;20189;-92
2023/07/26 08:39:00;;;;;;;7.90;4.50;;;18.50;99.90;;;;;;4828632;29;20189;-91
2023/07/26 08:41:26;;;;;;;8.80;4.00;;;18.60;99.90;;;;;;4828238;29;20195;-93
2023/07/26 08:43:56;;;;;;;6.03;3.80;;;18.80;99.90;;;;;;4845108;29;20238;-92
2023/07/26 08:46:23;;;;;;;8.60;3.70;;;18.90;99.90;;;;;;4829558;29;20461;-91
2023/07/26 08:48:49;;;;;;;8.00;4.13;;;18.90;99.90;;;;;;4845259;29;20418;-93
2023/07/26 08:51:15;;;;;;;5.87;3.37;;;19.00;99.90;;;;;;4845492;29;20903;-91
2023/07/26 08:53:44;;;;;;;8.47;3.80;;;19.00;99.90;;;;;;4844665;29;20441;-91
2023/07/26 08:56:12;;;;;;;6.70;3.93;;;18.60;99.90;;;;;;4844962;29;20414;-90
2023/07/26 08:58:40;;;;;;;7.27;4.17;;;18.80;99.90;;;;;;4844641;29;20401;-92
2023/07/26 09:01:06;;;;;;;5.57;3.80;;;18.80;99.90;;;;;;4844514;29;20404;-90
2023/07/26 09:03:32;;;;;;;11.13;4.40;;;18.70;99.90;;;;;;4844096;29;20877;-90
2023/07/26 09:06:06;;;;;;;7.13;3.60;;;19.10;99.90;;;;;;4828307;29;20409;-88
2023/07/26 09:08:32;;;;;;;8.43;3.70;;;19.50;99.90;;;;;;4827838;29;20437;-90
2023/07/26 09:10:58;;;;;;;10.50;4.27;;;20.10;99.90;;;;;;4844529;29;20414;-90
2023/07/26 09:13:24;;;;;;;8.70;3.50;;;20.10;99.90;;;;;;4844440;29;20426;-90
2023/07/26 09:15:50;;;;;;;5.43;3.97;;;20.60;99.90;;;;;;4844318;29;20418;-90
2023/07/26 09:18:16;;;;;;;5.57;3.33;;;20.30;99.90;;;;;;4828096;29;20189;-92
2023/07/26 09:20:42;;;;;;;6.93;4.40;;;20.30;99.90;;;;;;4828391;29;20834;-91
2023/07/26 09:23:10;;;;;;;8.77;3.50;;;20.50;99.90;;;;;;4827605;29;20477;-89
2023/07/26 09:25:39;;;;;;;6.23;3.53;;;20.60;99.90;;;;;;4843893;29;20193;-88
2023/07/26 09:28:08;;;;;;;6.60;3.70;;;21.30;99.90;;;;;;4844161;29;20425;-90
2023/07/26 09:30:38;;;;;;;7.30;4.17;;;21.50;99.90;;;;;;4827337;29;20458;-86
2023/07/26 09:33:06;;;;;;;10.00;3.70;;;21.00;99.90;;;;;;4843835;29;20417;-87
2023/07/26 09:35:32;;;;;;;9.33;4.07;;;20.50;99.90;;;;;;4843891;29;20393;-90
2023/07/26 09:38:09;;;;;;;7.90;3.90;;;21.00;99.90;;;;;;4827567;29;20433;-87
2023/07/26 09:40:34;;;;;;;4.90;3.30;;;20.60;99.90;;;;;;4828976;29;20425;-90
2023/07/26 09:43:01;;;;;;;8.43;3.43;;;20.30;99.90;;;;;;4827521;29;20447;-87
2023/07/26 09:45:27;;;;;;;6.30;3.93;;;20.40;99.90;;;;;;4843292;29;20532;-86
2023/07/26 09:48:04;;;;;;;5.07;3.27;;;21.00;99.90;;;;;;4852481;29;20400;-89
2023/07/26 09:50:30;;;;;;;5.10;2.90;;;21.50;99.90;;;;;;4852151;29;20214;-91
2023/07/26 09:52:56;;;;;;;6.57;3.70;;;21.90;99.90;;;;;;4843849;29;20846;-92
2023/07/26 09:55:24;;;;;;;4.70;3.30;;;21.50;99.90;;;;;;4827594;29;20429;-91
2023/07/26 09:57:54;;;;;;;5.70;3.23;;;21.40;99.90;;;;;;4843600;29;20914;-91
2023/07/26 10:00:23;;;;;;;6.10;2.93;;;21.60;99.90;;;;;;4843421;29;20426;-85
2023/07/26 10:02:58;;;;;;;5.33;3.40;;;22.20;99.90;;;;;;4842699;29;20744;-86
2023/07/26 10:05:29;;;;;;;3.50;3.20;;;22.40;99.90;;;;;;4843588;29;20766;-87
2023/07/26 10:07:55;;;;;;;6.97;3.37;;;22.20;99.90;;;;;;4843426;29;20825;-90
2023/07/26 10:10:22;;;;;;;5.07;2.60;;;21.50;99.90;;;;;;4843554;29;20493;-87
2023/07/26 10:12:50;;;;;;;4.30;3.07;;;21.30;99.90;;;;;;4827275;29;20427;-90
2023/07/26 10:15:17;;;;;;;7.23;2.70;;;20.70;99.90;;;;;;4843328;29;20927;-89
2023/07/26 10:17:48;;;;;;;7.23;2.50;;;20.50;99.90;;;;;;4812135;29;20403;-87
2023/07/26 10:20:14;;;;;;;5.70;3.37;;;20.50;99.90;;;;;;4843079;29;20980;-89
2023/07/26 10:22:42;;;;;;;8.00;3.20;;;21.20;99.90;;;;;;4826760;29;20461;-90
2023/07/26 10:25:08;;;;;;;3.53;2.87;;;21.50;99.90;;;;;;4843172;29;20422;-88
2023/07/26 10:27:35;;;;;;;4.80;2.83;;;22.20;99.90;;;;;;4826554;29;20412;-90
2023/07/26 10:30:01;;;;;;;5.00;2.57;;;22.30;99.90;;;;;;4827061;29;20430;-88
2023/07/26 10:32:27;;;;;;;5.17;3.30;;;22.50;99.90;;;;;;4842948;29;20835;-88
2023/07/26 10:34:57;;;;;;;6.37;3.40;;;22.10;99.90;;;;;;4826565;29;20418;-90
2023/07/26 10:37:29;;;;;;;4.30;2.43;;;22.10;99.90;;;;;;4826487;29;20196;-88
2023/07/26 10:39:55;;;;;;;4.37;3.27;;;21.50;99.90;;;;;;4826982;29;20434;-89
2023/07/26 10:42:26;;;;;;;6.00;3.10;;;21.10;99.90;;;;;;4826667;29;20482;-91
2023/07/26 10:44:57;;;;;;;6.83;2.50;;;20.20;99.90;;;;;;4846593;29;20241;-88
2023/07/26 10:47:23;;;;;;;4.53;2.40;;;19.40;99.90;;;;;;4843456;29;20418;-88
2023/07/26 10:49:49;;;;;;;5.80;3.03;;;19.10;99.90;;;;;;4842905;29;20422;-90
2023/07/26 10:52:16;;;;;;;4.93;2.40;;;19.10;99.90;;;;;;4826433;29;20199;-86
2023/07/26 10:54:44;;;;;;;5.40;2.87;;;19.30;99.90;;;;;;4842701;29;20788;-88
2023/07/26 10:57:13;;;;;;;3.27;2.07;;;19.30;99.90;;;;;;4843442;29;20906;-89
2023/07/26 10:59:59;;;;;;;4.83;2.60;;;19.60;99.90;;;;;;4832895;29;20411;-89
2023/07/26 11:02:48;;;;;;;4.17;2.03;;;19.90;99.90;;;;;;4815299;29;20817;-89
2023/07/26 11:05:19;;;;;;;2.70;2.27;;;19.90;99.90;;;;;;4829799;29;20438;-88
2023/07/26 11:08:07;;;;;;;6.03;2.47;;;20.00;99.90;;;;;;4830196;29;20464;-90
2023/07/26 11:10:48;;;;;;;6.53;3.13;;;20.10;99.90;;;;;;4829898;29;20408;-93
2023/07/26 11:13:20;;;;;;;4.60;3.53;;;19.60;99.90;;;;;;4830020;29;20909;-89
2023/07/26 11:15:52;;;;;;;4.43;3.33;;;19.00;99.90;;;;;;4846417;29;20754;-89
2023/07/26 11:18:19;;;;;;;6.53;3.13;;;18.80;99.90;;;;;;4846227;29;20402;-88
2023/07/26 11:20:50;;;;;;;7.33;3.60;;;18.80;99.90;;;;;;4846024;29;20396;-87
2023/07/26 11:23:28;;;;;;;8.83;3.80;;;18.80;99.90;;;;;;4846555;29;20524;-85
2023/07/26 11:25:56;;;;;;;5.60;3.60;;;18.70;99.90;;;;;;4830101;29;20746;-86
2023/07/26 11:28:21;;;;;;;6.50;5.07;;;18.30;99.90;;;;;;4853210;29;20396;-83
2023/07/26 11:30:52;;;;;;;11.67;5.80;;;18.00;99.90;;;;;;4846315;29;20470;-85
2023/07/26 11:33:35;;;;;;;9.57;6.13;;;17.70;99.90;;;;;;4850952;29;20862;-85
2023/07/26 11:36:05;;;;;;;12.53;6.20;;;17.60;99.90;;;;;;4846723;29;20505;-86
2023/07/26 11:38:31;;;;;;;6.90;6.17;;;17.70;99.90;;;;;;4846319;29;20505;-86
2023/07/26 11:40:57;;;;;;;11.13;6.37;;;17.90;99.90;;;;;;4846322;29;20513;-86
2023/07/26 11:43:25;;;;;;;6.30;5.70;;;18.20;99.90;;;;;;4846475;29;20218;-86
2023/07/26 11:45:51;;;;;;;7.93;5.50;;;18.80;99.90;;;;;;4845840;29;20456;-87
2023/07/26 11:48:18;;;;;;;7.87;4.87;;;19.50;99.90;;;;;;4829756;29;20436;-89
2023/07/26 11:50:44;;;;;;;6.13;4.20;;;20.40;99.90;;;;;;4845579;29;20425;-89
2023/07/26 11:53:12;;;;;;;6.03;4.13;;;21.40;99.90;;;;;;4845923;29;20438;-89
2023/07/26 11:55:40;;;;;;;4.87;3.00;;;22.20;99.90;;;;;;4845422;29;20177;-91
2023/07/26 11:58:08;;;;;;;6.83;3.57;;;22.80;99.90;;;;;;4845353;29;20425;-89
2023/07/26 12:00:41;;;;;;;3.73;2.90;;;23.30;99.90;;;;;;4845586;29;20414;-89
2023/07/26 12:03:07;;;;;;;4.33;2.70;;;23.50;99.90;;;;;;4845209;29;20466;-89
2023/07/26 12:05:33;;;;;;;4.23;2.90;;;23.60;99.90;;;;;;4828723;29;20418;-90
2023/07/26 12:08:03;;;;;;;4.20;3.40;;;23.50;99.90;;;;;;4845271;29;20541;-89
2023/07/26 12:10:31;;;;;;;5.20;2.87;;;23.50;99.90;;;;;;4844699;29;20413;-91
2023/07/26 12:12:58;;;;;;;3.43;2.90;;;23.80;99.90;;;;;;4828326;29;20490;-90
2023/07/26 12:15:24;;;;;;;4.80;3.07;;;23.60;99.90;;;;;;4845259;29;20846;-90
2023/07/26 12:18:03;;;;;;;4.30;2.97;;;23.00;99.90;;;;;;4844856;29;20979;-90
2023/07/26 12:20:30;;;;;;;6.03;3.30;;;22.70;99.90;;;;;;4845251;29;20421;-90
2023/07/26 12:22:58;;;;;;;4.67;3.13;;;22.60;99.90;;;;;;4828386;29;20477;-90
2023/07/26 12:25:36;;;;;;;6.83;3.37;;;22.70;99.90;;;;;;4845161;29;20418;-90
2023/07/26 12:28:04;;;;;;;4.50;2.63;;;22.50;99.90;;;;;;4844797;29;20508;-91
2023/07/26 12:30:30;;;;;;;3.17;2.67;;;22.10;99.90;;;;;;4844511;29;20426;-91
2023/07/26 12:33:13;;;;;;;2.93;2.63;;;22.30;99.90;;;;;;4834147;29;20453;-91
2023/07/26 12:35:44;;;;;;;3.13;2.17;;;22.80;99.90;;;;;;4829624;29;20189;-91
2023/07/26 12:38:19;;;;;;;4.07;2.93;;;23.00;99.90;;;;;;4848593;29;20783;-90
2023/07/26 12:40:46;;;;;;;3.60;2.80;;;23.00;99.90;;;;;;4828222;29;20524;-90
2023/07/26 12:43:30;;;;;;;3.60;2.80;;;23.00;99.90;;;;;;4844797;29;20477;-90
2023/07/26 12:45:57;;;;;;;3.43;2.27;;;22.50;99.90;;;;;;4844591;29;20422;-91